createdAt,value
2019-04-03T00:00:29.962Z,99183.59
2019-04-03T00:05:35.394Z,99169.63
2019-04-03T00:10:39.759Z,99163.74
2019-04-03T00:15:44.645Z,99161.40
2019-04-03T00:20:49.550Z,99154.77
2019-04-03T00:25:53.641Z,99156.76
2019-04-03T00:30:57.649Z,99156.61
2019-04-03T00:36:01.677Z,99148.88
2019-04-03T00:41:05.909Z,99145.44
2019-04-03T00:46:10.021Z,99138.86
2019-04-03T00:51:14.205Z,99140.70
2019-04-03T00:56:18.246Z,99140.70
2019-04-03T01:01:22.497Z,99134.96
2019-04-03T01:06:28.322Z,99107.75
2019-04-03T01:11:32.459Z,99120.55
2019-04-03T01:16:36.466Z,99095.28
2019-04-03T01:21:40.590Z,99095.28
2019-04-03T01:26:44.642Z,99087.88
2019-04-03T01:31:48.722Z,99081.91
2019-04-03T01:36:52.756Z,99073.79
2019-04-03T01:41:56.789Z,99076.13
2019-04-03T01:47:01.007Z,99093.08
2019-04-03T01:52:05.094Z,99078.56
2019-04-03T01:57:09.141Z,99078.56
2019-04-03T02:02:13.363Z,99074.58
2019-04-03T02:07:17.425Z,99074.19
2019-04-03T02:12:21.752Z,99056.98
2019-04-03T02:17:25.832Z,99056.98
2019-04-03T02:22:30.130Z,99053.20
2019-04-03T02:27:34.175Z,99056.04
2019-04-03T02:32:38.289Z,99055.84
2019-04-03T02:37:42.364Z,99055.84
2019-04-03T02:42:46.351Z,99034.75
2019-04-03T02:47:50.436Z,99048.02
2019-04-03T02:52:58.210Z,99048.02
2019-04-03T02:58:00.808Z,99059.53
2019-04-03T03:03:05.113Z,99048.61
2019-04-03T03:08:10.035Z,99051.61
2019-04-03T03:13:14.444Z,99051.61
2019-04-03T03:18:19.452Z,99054.09
2019-04-03T03:23:24.327Z,99050.66
2019-04-03T03:28:28.842Z,99041.63
2019-04-03T03:33:37.859Z,99045.28
2019-04-03T03:38:40.316Z,99043.53
2019-04-03T03:43:46.288Z,99043.53
2019-04-03T03:48:51.004Z,99030.12
2019-04-03T03:53:55.721Z,99012.89
2019-04-03T03:59:00.027Z,99024.15
2019-04-03T04:04:04.488Z,99024.76
2019-04-03T04:09:08.688Z,99024.76
2019-04-03T04:14:13.060Z,99003.37
2019-04-03T04:19:17.359Z,99003.37
2019-04-03T04:24:21.546Z,99022.96
2019-04-03T04:29:25.612Z,99036.70
2019-04-03T04:34:29.724Z,99023.86
2019-04-03T04:39:34.266Z,99002.92
2019-04-03T04:44:38.899Z,99016.22
2019-04-03T04:49:44.020Z,99008.26
2019-04-03T04:54:48.268Z,99010.10
2019-04-03T04:59:52.415Z,99013.44
2019-04-03T05:04:56.684Z,99013.44
2019-04-03T05:10:01.048Z,99002.13
2019-04-03T05:15:06.651Z,99002.13
2019-04-03T05:20:11.614Z,99013.69
2019-04-03T05:25:15.773Z,99013.69
2019-04-03T05:30:38.981Z,99014.67
2019-04-03T05:35:45.610Z,99013.97
2019-04-03T05:40:48.730Z,99006.34
2019-04-03T05:45:53.225Z,99013.06
2019-04-03T05:50:58.530Z,99013.06
2019-04-03T05:56:02.888Z,99004.81
2019-04-03T06:01:10.305Z,99024.13
2019-04-03T06:06:14.581Z,99020.59
2019-04-03T06:11:20.778Z,99014.86
2019-04-03T06:16:25.001Z,98985.58
2019-04-03T06:21:29.185Z,99006.05
2019-04-03T06:26:33.218Z,98988.91
2019-04-03T06:31:37.483Z,98995.80
2019-04-03T06:36:41.570Z,99023.68
2019-04-03T06:41:45.734Z,98986.03
2019-04-03T06:46:49.732Z,98976.27
2019-04-03T06:51:53.740Z,98992.61
2019-04-03T06:56:57.790Z,98992.61
2019-04-03T07:02:01.807Z,99010.94
2019-04-03T07:07:05.907Z,98990.24
2019-04-03T07:12:10.062Z,98992.09
2019-04-03T07:17:14.093Z,98992.09
2019-04-03T07:22:18.111Z,98974.08
2019-04-03T07:27:22.344Z,98967.62
2019-04-03T07:32:26.394Z,98967.62
2019-04-03T07:37:30.562Z,98957.74
2019-04-03T07:42:34.714Z,98968.85
2019-04-03T07:47:39.139Z,98951.27
2019-04-03T07:52:43.318Z,98976.38
2019-04-03T07:57:47.667Z,98976.38
2019-04-03T08:02:51.797Z,98975.23
2019-04-03T08:07:55.889Z,98983.53
2019-04-03T08:13:00.275Z,98975.17
2019-04-03T08:18:04.472Z,98970.64
2019-04-03T08:23:08.514Z,98970.64
2019-04-03T08:28:12.510Z,98964.27
2019-04-03T08:33:18.513Z,98957.94
2019-04-03T08:38:22.646Z,98955.59
2019-04-03T08:43:26.821Z,98955.59
2019-04-03T08:48:30.852Z,98948.52
2019-04-03T08:53:34.880Z,98952.55
2019-04-03T08:58:39.177Z,98952.05
2019-04-03T09:03:43.919Z,98935.23
2019-04-03T09:08:49.274Z,98935.23
2019-04-03T09:13:54.823Z,98942.29
2019-04-03T09:18:59.056Z,98940.45
2019-04-03T09:24:03.031Z,98940.80
2019-04-03T09:29:07.126Z,98925.70
2019-04-03T09:34:11.141Z,98941.16
2019-04-03T09:39:15.356Z,98936.77
2019-04-03T09:44:19.380Z,98936.91
2019-04-03T09:49:23.415Z,98928.84
2019-04-03T09:54:28.337Z,98913.41
2019-04-03T09:59:32.812Z,98906.83
2019-04-03T10:04:36.960Z,98921.63
2019-04-03T10:09:43.115Z,98915.69
2019-04-03T10:14:46.835Z,98915.69
2019-04-03T10:19:50.886Z,98909.90
2019-04-03T10:24:55.247Z,98900.19
2019-04-03T10:29:59.800Z,98884.89
2019-04-03T10:35:06.603Z,98894.31
2019-04-03T10:40:10.284Z,98899.69
2019-04-03T10:45:14.965Z,98904.81
2019-04-03T10:50:19.447Z,98904.81
2019-04-03T10:55:23.618Z,98909.78
2019-04-03T11:00:29.285Z,98909.78
2019-04-03T11:05:33.759Z,98895.72
2019-04-03T11:10:37.858Z,98890.69
2019-04-03T11:15:43.834Z,98883.81
2019-04-03T11:20:47.897Z,98883.81
2019-04-03T11:25:51.982Z,98870.79
2019-04-03T11:31:00.315Z,98865.14
2019-04-03T11:36:01.749Z,98852.18
2019-04-03T11:41:12.419Z,98859.45
2019-04-03T11:46:11.739Z,98851.83
2019-04-03T11:51:15.748Z,98851.83
2019-04-03T11:56:19.849Z,98833.84
2019-04-03T12:01:24.116Z,98816.72
2019-04-03T12:06:28.490Z,98816.72
2019-04-03T12:11:32.930Z,98819.76
2019-04-03T12:16:37.090Z,98811.46
2019-04-03T12:21:41.256Z,98805.42
2019-04-03T12:26:45.237Z,98790.55
2019-04-03T12:31:49.426Z,98790.55
2019-04-03T12:36:53.674Z,98775.37
2019-04-03T12:41:58.277Z,98775.37
2019-04-03T12:47:04.662Z,98770.19
2019-04-03T12:52:08.218Z,98761.55
2019-04-03T12:57:12.379Z,98761.55
2019-04-03T13:02:16.473Z,98760.86
2019-04-03T13:07:20.493Z,98749.88
2019-04-03T13:12:26.627Z,98750.10
2019-04-03T13:17:30.290Z,98740.48
2019-04-03T13:22:34.384Z,98740.48
2019-04-03T13:27:38.495Z,98719.09
2019-04-03T13:32:43.038Z,98724.47
2019-04-03T13:37:47.452Z,98711.58
2019-04-03T13:49:02.505Z,98696.00
2019-04-03T13:54:07.988Z,98705.92
2019-04-03T13:59:12.963Z,98692.63
2019-04-03T14:04:17.120Z,98700.70
2019-04-03T14:09:21.164Z,98678.50
2019-04-03T14:14:25.208Z,98689.78
2019-04-03T14:19:41.842Z,98689.78
2019-04-03T14:24:41.462Z,98670.52
2019-04-03T14:29:40.937Z,98670.52
2019-04-03T14:34:44.944Z,98662.64
2019-04-03T14:39:49.042Z,98664.70
2019-04-03T14:44:53.407Z,98655.63
2019-04-03T14:49:57.497Z,98662.20
2019-04-03T14:55:15.334Z,98651.16
2019-04-03T15:00:22.951Z,98652.42
2019-04-03T15:05:14.383Z,98654.22
2019-04-03T15:10:18.752Z,98646.13
2019-04-03T15:15:22.978Z,98649.83
2019-04-03T15:20:27.479Z,98630.48
2019-04-03T15:25:31.685Z,98630.48
2019-04-03T15:30:36.260Z,98613.70
2019-04-03T15:35:40.394Z,98609.72
2019-04-03T15:40:44.574Z,98609.72
2019-04-03T15:45:49.472Z,98606.77
2019-04-03T15:50:53.544Z,98600.96
2019-04-03T15:55:57.671Z,98587.60
2019-04-03T16:01:01.734Z,98585.41
2019-04-03T16:06:05.837Z,98570.80
2019-04-03T16:11:10.356Z,98575.87
2019-04-03T16:16:14.433Z,98554.27
2019-04-03T16:21:19.914Z,98560.69
2019-04-03T16:26:24.988Z,98539.92
2019-04-03T16:31:29.653Z,98539.92
2019-04-03T16:36:33.752Z,98540.05
2019-04-03T16:41:38.829Z,98539.32
2019-04-03T16:46:43.024Z,98539.32
2019-04-03T16:51:47.053Z,98521.50
2019-04-03T16:56:51.087Z,98507.34
2019-04-03T17:01:55.611Z,98500.04
2019-04-03T17:06:59.727Z,98488.89
2019-04-03T17:12:03.890Z,98488.89
2019-04-03T17:17:12.467Z,98493.05
2019-04-03T17:22:14.164Z,98493.05
2019-04-03T17:27:18.782Z,98475.95
2019-04-03T17:32:23.442Z,98471.14
2019-04-03T17:37:30.758Z,98483.15
2019-04-03T17:42:33.443Z,98483.15
2019-04-03T17:47:37.528Z,98471.11
2019-04-03T17:52:41.619Z,98471.78
2019-04-03T17:57:45.620Z,98471.91
2019-04-03T18:02:49.767Z,98471.91
2019-04-03T18:07:53.883Z,98456.79
2019-04-03T18:12:57.921Z,98473.81
2019-04-03T18:18:02.857Z,98471.61
2019-04-03T18:23:10.483Z,98471.61
2019-04-03T18:28:13.384Z,98475.28
2019-04-03T18:33:17.631Z,98470.73
2019-04-03T18:38:21.839Z,98465.64
2019-04-03T18:43:25.861Z,98465.64
2019-04-03T18:48:29.881Z,98455.15
2019-04-03T18:53:33.904Z,98459.74
2019-04-03T18:58:37.976Z,98459.74
2019-04-03T19:03:42.075Z,98451.98
2019-04-03T19:08:46.168Z,98446.09
2019-04-03T19:13:50.201Z,98451.28
2019-04-03T19:18:54.260Z,98451.28
2019-04-03T19:23:58.293Z,98437.75
2019-04-03T19:29:04.735Z,98436.58
2019-04-03T19:34:08.275Z,98437.55
2019-04-03T19:39:12.367Z,98432.16
2019-04-03T19:44:18.040Z,98431.61
2019-04-03T19:49:22.155Z,98431.61
2019-04-03T19:54:26.273Z,98437.80
2019-04-03T19:59:34.230Z,98440.16
2019-04-03T20:04:36.054Z,98427.69
2019-04-03T20:09:40.098Z,98425.50
2019-04-03T20:14:57.449Z,98415.02
2019-04-03T20:19:50.053Z,98419.06
2019-04-03T20:24:59.725Z,98419.23
2019-04-03T20:30:00.781Z,98410.81
2019-04-03T20:35:06.372Z,98410.81
2019-04-03T20:40:10.535Z,98413.50
2019-04-03T20:45:14.707Z,98409.63
2019-04-03T20:50:18.812Z,98403.86
2019-04-03T20:55:24.749Z,98396.28
2019-04-03T21:00:28.757Z,98394.09
2019-04-03T21:05:32.911Z,98394.09
2019-04-03T21:10:36.924Z,98391.91
2019-04-03T21:15:40.960Z,98386.52
2019-04-03T21:20:44.968Z,98385.84
2019-04-03T21:25:48.972Z,98385.84
2019-04-03T21:30:54.870Z,98379.74
2019-04-03T21:35:58.801Z,98369.59
2019-04-03T21:41:02.848Z,98381.09
2019-04-03T21:51:11.556Z,98379.27
2019-04-03T21:56:15.563Z,98357.77
2019-04-03T22:01:25.087Z,98368.28
2019-04-03T22:06:29.525Z,98368.28
2019-04-03T22:11:35.490Z,98359.28
2019-04-03T22:16:39.557Z,98372.83
2019-04-03T22:21:43.585Z,98354.37
2019-04-03T22:26:47.586Z,98368.95
2019-04-03T22:31:53.604Z,98363.06
2019-04-03T22:36:57.472Z,98360.70
2019-04-03T22:42:01.519Z,98338.87
2019-04-03T22:47:05.547Z,98353.80
2019-04-03T22:52:09.572Z,98351.11
2019-04-03T22:58:03.845Z,98348.41
2019-04-03T23:03:07.923Z,98348.75
2019-04-03T23:08:12.042Z,98346.33
2019-04-03T23:13:16.276Z,98343.97
2019-04-03T23:18:20.310Z,98342.25
2019-04-03T23:23:27.101Z,98348.98
2019-04-03T23:28:30.083Z,98348.98
2019-04-03T23:33:34.120Z,98345.11
2019-04-03T23:38:38.148Z,98398.30
2019-04-03T23:43:42.163Z,98395.02
2019-04-03T23:48:46.994Z,98395.02
2019-04-03T23:53:51.945Z,98395.34
2019-04-03T23:58:55.984Z,98397.38
